Time;durP1;ratioP1;P1;durP2;ratioP2;P2;SDS_P1;SDS_P2;PMS_P1;PMS_P2;Temp;Humidity;BMP_temperature;BMP_pressure;BME280_temperature;BME280_humidity;BME280_pressure;Samples;Min_cycle;Max_cycle;Signal;HPM_P1;HPM_P2
2023/01/30 00:01:52;;;;;;;39.95;23.13;;;5.60;93.80;;;;;;5015140;28;20064;-47
2023/01/30 00:04:20;;;;;;;35.50;21.80;;;5.60;93.80;;;;;;5030730;28;20034;-47
2023/01/30 00:06:47;;;;;;;33.40;21.08;;;5.70;93.70;;;;;;5025182;28;20044;-46
2023/01/30 00:09:14;;;;;;;33.13;18.90;;;5.70;93.70;;;;;;5033262;28;20179;-48
2023/01/30 00:11:41;;;;;;;32.63;19.48;;;5.80;93.70;;;;;;5031225;28;20049;-47
2023/01/30 00:14:09;;;;;;;31.15;19.70;;;5.80;93.70;;;;;;5024460;28;20029;-47
2023/01/30 00:16:36;;;;;;;33.75;19.60;;;5.80;93.70;;;;;;5030768;28;20370;-48
2023/01/30 00:19:03;;;;;;;29.48;18.70;;;5.90;93.70;;;;;;5029838;28;20087;-47
2023/01/30 00:21:31;;;;;;;27.40;17.77;;;5.90;93.60;;;;;;5031803;28;20358;-47
2023/01/30 00:23:59;;;;;;;27.13;17.65;;;5.90;93.60;;;;;;5033905;28;20049;-47
2023/01/30 00:26:27;;;;;;;25.60;18.35;;;5.90;93.40;;;;;;5031527;28;20029;-47
2023/01/30 00:28:53;;;;;;;26.20;16.65;;;6.00;93.40;;;;;;5023088;28;20030;-47
2023/01/30 00:31:20;;;;;;;31.05;16.00;;;6.00;93.40;;;;;;5029379;28;20120;-47
2023/01/30 00:33:47;;;;;;;25.20;15.15;;;6.00;93.50;;;;;;5025365;28;20065;-47
2023/01/30 00:36:14;;;;;;;19.83;13.75;;;6.10;93.40;;;;;;5026192;28;20025;-47
2023/01/30 00:38:43;;;;;;;21.77;14.23;;;6.10;93.30;;;;;;5032403;28;20026;-48
2023/01/30 00:41:09;;;;;;;25.88;14.18;;;6.20;93.40;;;;;;5030545;28;20386;-49
2023/01/30 00:49:14;;;;;;;21.92;12.95;;;6.30;93.40;;;;;;5015144;28;20498;-61
2023/01/30 00:51:42;;;;;;;21.95;13.73;;;6.30;93.40;;;;;;5030510;28;20033;-60
2023/01/30 00:54:12;;;;;;;21.55;13.68;;;6.30;93.50;;;;;;5032247;28;20033;-58
2023/01/30 00:56:39;;;;;;;19.60;13.00;;;6.20;93.60;;;;;;5029819;28;20033;-59
2023/01/30 00:59:06;;;;;;;21.63;12.65;;;6.30;93.80;;;;;;5032780;28;20029;-59
2023/01/30 01:01:34;;;;;;;20.20;13.75;;;6.20;93.90;;;;;;5029786;28;20026;-60
2023/01/30 01:04:01;;;;;;;25.42;13.05;;;6.20;94.00;;;;;;5026050;28;20033;-62
2023/01/30 01:06:28;;;;;;;22.55;12.63;;;6.20;94.10;;;;;;5023371;28;20056;-58
2023/01/30 01:08:56;;;;;;;21.75;13.13;;;6.20;94.30;;;;;;5024358;28;20033;-58
2023/01/30 01:11:24;;;;;;;22.75;13.00;;;6.20;94.40;;;;;;5022003;28;20061;-59
2023/01/30 01:13:57;;;;;;;18.95;12.80;;;6.20;94.40;;;;;;5032354;28;20033;-59
2023/01/30 01:16:25;;;;;;;23.67;13.38;;;6.20;94.50;;;;;;5029998;28;20383;-58
2023/01/30 01:19:04;;;;;;;21.25;12.02;;;6.20;94.60;;;;;;5018743;28;20025;-61
2023/01/30 01:21:36;;;;;;;23.08;12.27;;;6.20;94.60;;;;;;5027421;28;20017;-60
2023/01/30 01:24:09;;;;;;;17.08;11.07;;;6.20;94.60;;;;;;5012035;28;20038;-60
2023/01/30 01:26:38;;;;;;;22.65;11.25;;;6.30;94.70;;;;;;5020919;28;20048;-61
2023/01/30 01:29:06;;;;;;;18.48;10.88;;;6.20;94.70;;;;;;5013402;28;20069;-61
2023/01/30 01:31:33;;;;;;;20.75;11.07;;;6.30;94.80;;;;;;5026144;28;20446;-61
2023/01/30 01:34:00;;;;;;;13.85;8.45;;;6.20;94.80;;;;;;5035449;28;20086;-62
2023/01/30 01:36:26;;;;;;;14.10;8.38;;;6.30;94.90;;;;;;5028129;28;20018;-60
2023/01/30 01:38:55;;;;;;;12.95;8.73;;;6.20;94.90;;;;;;5030596;28;20163;-61
2023/01/30 01:41:22;;;;;;;;;;;6.30;95.00;;;;;;5017949;28;20620;-60
2023/01/30 01:44:09;;;;;;;14.40;6.93;;;6.20;95.00;;;;;;5030745;28;20000;-61
2023/01/30 01:46:48;;;;;;;11.80;6.07;;;6.30;95.10;;;;;;5022574;28;20040;-62
2023/01/30 01:49:30;;;;;;;11.43;7.22;;;6.30;95.10;;;;;;5027962;28;20344;-60
2023/01/30 01:52:06;;;;;;;10.98;6.60;;;6.30;95.20;;;;;;5029775;28;20041;-62
2023/01/30 01:54:49;;;;;;;12.05;6.28;;;6.30;95.10;;;;;;5027128;28;20029;-60
2023/01/30 01:57:40;;;;;;;9.02;6.20;;;6.30;95.20;;;;;;5028092;28;20036;-59
2023/01/30 02:00:12;;;;;;;9.70;5.53;;;6.30;95.20;;;;;;5025493;28;20041;-58
2023/01/30 02:02:53;;;;;;;8.80;4.90;;;6.30;95.20;;;;;;5033804;28;20029;-59
2023/01/30 02:05:30;;;;;;;8.48;4.63;;;6.30;95.40;;;;;;5025833;28;20034;-59
2023/01/30 02:08:23;;;;;;;8.02;4.95;;;6.30;95.30;;;;;;5012600;28;20034;-59
2023/01/30 02:10:58;;;;;;;6.50;4.40;;;6.30;95.40;;;;;;5012545;28;20061;-58
2023/01/30 02:13:25;;;;;;;10.13;5.53;;;6.40;95.40;;;;;;5019140;28;20099;-57
2023/01/30 02:15:57;;;;;;;6.70;4.40;;;6.30;95.40;;;;;;5023955;28;20110;-54
2023/01/30 02:18:23;;;;;;;7.53;3.72;;;6.30;95.50;;;;;;5041907;28;20048;-55
2023/01/30 02:21:27;;;;;;;14.75;4.47;;;6.30;95.50;;;;;;5045193;28;20030;-53
2023/01/30 02:24:04;;;;;;;9.57;4.35;;;6.30;95.60;;;;;;5023731;28;20033;-49
2023/01/30 02:26:49;;;;;;;9.40;3.88;;;6.30;95.50;;;;;;5021304;28;20113;-49
2023/01/30 02:29:39;;;;;;;16.33;5.68;;;6.40;95.50;;;;;;5038680;28;20036;-51
2023/01/30 02:32:42;;;;;;;14.20;5.15;;;6.30;95.50;;;;;;5044213;28;20057;-48
2023/01/30 02:35:35;;;;;;;16.23;5.60;;;6.40;95.50;;;;;;5026919;28;20033;-48
2023/01/30 02:38:15;;;;;;;14.60;5.80;;;6.30;95.40;;;;;;5034473;28;20072;-48
2023/01/30 02:40:59;;;;;;;19.25;6.13;;;6.30;95.30;;;;;;5034045;28;20049;-48
2023/01/30 02:43:44;;;;;;;15.40;5.22;;;6.30;95.20;;;;;;5033045;28;20057;-49
2023/01/30 02:46:18;;;;;;;14.90;5.68;;;6.30;95.20;;;;;;5035173;28;20025;-48
2023/01/30 02:49:07;;;;;;;22.63;5.78;;;6.30;95.10;;;;;;5022008;28;20040;-48
2023/01/30 02:51:36;;;;;;;16.42;5.10;;;6.30;95.00;;;;;;5015558;28;20030;-50
2023/01/30 02:54:06;;;;;;;25.60;5.22;;;6.30;94.90;;;;;;5032018;28;20418;-48
2023/01/30 02:56:56;;;;;;;15.63;4.03;;;6.30;94.80;;;;;;5033204;28;20073;-50
2023/01/30 02:59:46;;;;;;;23.73;5.20;;;6.20;94.70;;;;;;5025585;28;20042;-49
2023/01/30 03:02:20;;;;;;;12.05;3.55;;;6.10;94.50;;;;;;5029314;28;20033;-48
2023/01/30 03:05:23;;;;;;;17.02;3.28;;;6.10;94.50;;;;;;5034914;28;20398;-51
2023/01/30 03:08:25;;;;;;;20.27;4.05;;;6.10;94.20;;;;;;5034849;28;20040;-52
2023/01/30 03:11:04;;;;;;;10.45;2.65;;;6.00;93.90;;;;;;5030067;28;20410;-49
2023/01/30 03:13:54;;;;;;;12.77;2.72;;;6.00;93.70;;;;;;5032723;28;20071;-51
2023/01/30 03:16:40;;;;;;;13.07;2.58;;;5.90;93.40;;;;;;5033086;28;20095;-49
2023/01/30 03:19:11;;;;;;;13.30;2.50;;;5.90;93.30;;;;;;5019519;28;20474;-49
2023/01/30 03:21:43;;;;;;;18.70;5.38;;;5.90;93.00;;;;;;5031926;28;20040;-50
2023/01/30 03:24:12;;;;;;;15.80;2.78;;;5.90;92.90;;;;;;5030250;28;20038;-53
2023/01/30 03:26:55;;;;;;;15.73;2.55;;;5.90;92.80;;;;;;5032576;28;20041;-52
2023/01/30 03:29:22;;;;;;;12.38;2.30;;;6.00;92.80;;;;;;5028432;28;20116;-59
2023/01/30 03:31:49;;;;;;;18.63;3.83;;;6.00;92.70;;;;;;5016078;28;20106;-59
2023/01/30 03:34:16;;;;;;;13.95;2.28;;;5.90;92.70;;;;;;5028724;28;20045;-57
2023/01/30 03:36:43;;;;;;;19.75;3.42;;;5.90;92.80;;;;;;5014815;28;20033;-57
2023/01/30 03:39:09;;;;;;;11.55;2.50;;;5.90;93.00;;;;;;5027237;28;20022;-58
2023/01/30 03:41:36;;;;;;;11.45;2.40;;;5.90;93.20;;;;;;5033038;28;20139;-52
2023/01/30 03:44:05;;;;;;;10.93;3.38;;;5.90;93.30;;;;;;5033206;28;20118;-54
2023/01/30 03:46:31;;;;;;;31.95;5.88;;;5.90;93.40;;;;;;5032982;28;20029;-58
2023/01/30 03:48:57;;;;;;;16.15;2.65;;;5.80;93.40;;;;;;5026536;28;20507;-58
2023/01/30 03:51:22;;;;;;;20.40;3.80;;;5.80;93.50;;;;;;5033311;28;20037;-59
2023/01/30 03:53:49;;;;;;;17.77;3.42;;;5.90;93.60;;;;;;5030632;28;20104;-61
2023/01/30 03:56:16;;;;;;;22.30;4.18;;;5.90;93.70;;;;;;5014212;28;20173;-59
2023/01/30 03:58:44;;;;;;;26.98;6.22;;;5.80;93.80;;;;;;5013915;28;20065;-57
2023/01/30 04:01:10;;;;;;;22.65;3.42;;;5.80;93.80;;;;;;5013920;28;20026;-60
2023/01/30 04:03:38;;;;;;;14.10;2.55;;;5.70;93.70;;;;;;5027563;28;20367;-61
2023/01/30 04:06:06;;;;;;;12.20;3.25;;;5.60;93.70;;;;;;5033568;28;20049;-59
2023/01/30 04:08:33;;;;;;;13.18;2.10;;;5.50;93.70;;;;;;5033817;28;20043;-60
2023/01/30 04:10:59;;;;;;;18.83;4.65;;;5.50;93.80;;;;;;5033749;28;20060;-59
2023/01/30 04:13:28;;;;;;;18.23;3.15;;;5.40;93.70;;;;;;5024546;28;20325;-55
2023/01/30 04:16:20;;;;;;;13.10;2.90;;;5.40;93.70;;;;;;5013639;28;20116;-55
2023/01/30 04:18:46;;;;;;;17.42;3.35;;;5.40;93.70;;;;;;5017063;28;20037;-57
2023/01/30 04:21:13;;;;;;;14.05;2.40;;;5.40;93.70;;;;;;5017655;28;20506;-58
2023/01/30 04:23:40;;;;;;;15.88;4.13;;;5.40;93.80;;;;;;4993880;28;20402;-53
2023/01/30 04:26:08;;;;;;;17.83;3.80;;;5.40;93.90;;;;;;5031284;28;20057;-51
2023/01/30 04:28:36;;;;;;;17.98;3.78;;;5.40;93.90;;;;;;5025287;28;20811;-52
2023/01/30 04:31:02;;;;;;;21.65;5.32;;;5.40;93.90;;;;;;5028269;28;20119;-52
2023/01/30 04:33:29;;;;;;;19.27;3.97;;;5.50;94.00;;;;;;5029785;28;20044;-60
2023/01/30 04:35:58;;;;;;;26.70;4.95;;;5.60;94.00;;;;;;5031474;28;20532;-60
2023/01/30 04:38:28;;;;;;;12.10;2.40;;;5.50;93.70;;;;;;5030904;28;20079;-60
2023/01/30 04:40:57;;;;;;;18.83;2.45;;;5.20;92.20;;;;;;5015708;28;20060;-58
2023/01/30 04:43:25;;;;;;;18.55;3.75;;;5.20;92.30;;;;;;5030300;28;20032;-56
2023/01/30 04:45:52;;;;;;;20.15;4.10;;;5.30;92.90;;;;;;5052035;28;20369;-54
2023/01/30 04:48:19;;;;;;;28.73;6.68;;;5.40;93.40;;;;;;5033886;28;20104;-57
2023/01/30 04:50:49;;;;;;;14.45;3.53;;;5.50;93.80;;;;;;5024062;28;20037;-52
2023/01/30 04:53:18;;;;;;;13.30;2.63;;;5.60;93.70;;;;;;5027396;28;20057;-58
2023/01/30 04:55:46;;;;;;;;;;;5.40;93.00;;;;;;5031616;28;20021;-58
2023/01/30 04:58:15;;;;;;;13.18;2.47;;;5.30;92.70;;;;;;5029542;28;19924;-60
2023/01/30 05:00:47;;;;;;;15.35;2.55;;;5.20;92.60;;;;;;5025006;28;20037;-60
2023/01/30 05:03:16;;;;;;;10.73;1.88;;;5.10;92.70;;;;;;5030848;28;20065;-60
2023/01/30 05:05:46;;;;;;;11.73;2.67;;;5.10;92.80;;;;;;5030999;28;20072;-53
2023/01/30 05:08:19;;;;;;;16.42;2.90;;;5.00;92.70;;;;;;5027887;28;20083;-54
2023/01/30 05:10:44;;;;;;;22.77;3.42;;;4.90;92.90;;;;;;5024866;28;20106;-56
2023/01/30 05:13:12;;;;;;;11.52;2.97;;;4.90;93.10;;;;;;5031817;28;20029;-50
2023/01/30 05:15:39;;;;;;;26.45;4.07;;;5.00;93.20;;;;;;5032653;28;20028;-53
2023/01/30 05:18:06;;;;;;;22.75;7.32;;;5.00;93.10;;;;;;5020651;28;20332;-49
2023/01/30 05:20:32;;;;;;;24.20;4.63;;;5.00;93.10;;;;;;5030347;28;20518;-51
2023/01/30 05:22:57;;;;;;;25.95;4.68;;;4.90;93.10;;;;;;5010213;28;20149;-49
2023/01/30 05:25:24;;;;;;;27.02;5.53;;;4.90;93.30;;;;;;5011398;28;20030;-49
2023/01/30 05:27:51;;;;;;;30.50;6.43;;;5.00;93.50;;;;;;5024802;28;20037;-49
2023/01/30 05:30:17;;;;;;;37.70;6.93;;;5.20;94.00;;;;;;5025781;28;20033;-50
2023/01/30 05:32:43;;;;;;;43.78;9.13;;;5.30;94.00;;;;;;5031371;28;20033;-48
2023/01/30 05:35:10;;;;;;;46.92;8.48;;;5.30;94.00;;;;;;5025615;28;21390;-50
2023/01/30 05:37:38;;;;;;;53.88;8.05;;;5.40;93.80;;;;;;5024552;28;20026;-50
2023/01/30 05:40:07;;;;;;;33.53;7.72;;;5.40;93.70;;;;;;5028601;28;20156;-48
2023/01/30 05:42:34;;;;;;;44.28;7.80;;;5.40;93.40;;;;;;5029996;28;20022;-49
2023/01/30 05:45:01;;;;;;;34.97;8.68;;;5.40;93.30;;;;;;5030004;28;20123;-49
2023/01/30 05:47:27;;;;;;;50.10;9.63;;;5.30;93.30;;;;;;5029553;28;20069;-48
2023/01/30 05:49:54;;;;;;;45.83;8.48;;;5.30;93.30;;;;;;5032363;28;20026;-48
2023/01/30 05:52:20;;;;;;;41.90;7.47;;;5.30;93.20;;;;;;5026854;28;20167;-48
2023/01/30 05:54:47;;;;;;;37.50;7.10;;;5.20;93.10;;;;;;5031333;28;20108;-48
2023/01/30 05:57:14;;;;;;;48.03;7.85;;;5.20;93.20;;;;;;5030719;28;20096;-48
2023/01/30 05:59:40;;;;;;;35.75;9.13;;;5.20;93.20;;;;;;5031794;28;20080;-48
2023/01/30 06:02:08;;;;;;;42.13;7.22;;;5.10;93.10;;;;;;5027443;28;20124;-48
2023/01/30 06:04:34;;;;;;;40.00;7.85;;;5.10;93.10;;;;;;5030373;28;20036;-48
2023/01/30 06:07:00;;;;;;;37.50;7.53;;;5.00;92.90;;;;;;5033593;28;20055;-47
2023/01/30 06:09:28;;;;;;;36.75;8.10;;;5.00;92.90;;;;;;5024201;28;20446;-48
2023/01/30 06:11:54;;;;;;;29.27;7.65;;;5.00;92.80;;;;;;5030104;28;20058;-47
2023/01/30 06:14:24;;;;;;;59.03;9.05;;;5.00;92.70;;;;;;5042231;28;20037;-47
2023/01/30 06:16:51;;;;;;;38.67;11.00;;;5.00;92.60;;;;;;5031827;28;20030;-49
2023/01/30 06:19:18;;;;;;;39.13;8.20;;;5.00;92.50;;;;;;5018993;28;20030;-52
2023/01/30 06:21:45;;;;;;;36.25;8.48;;;5.00;92.20;;;;;;5033144;28;20135;-49
2023/01/30 06:24:12;;;;;;;37.20;8.10;;;5.10;92.20;;;;;;5031613;28;20132;-47
2023/01/30 06:26:40;;;;;;;35.20;7.25;;;5.10;92.00;;;;;;5031294;28;20451;-47
2023/01/30 06:29:06;;;;;;;31.88;6.57;;;5.00;91.90;;;;;;5033037;28;20052;-49
2023/01/30 06:31:35;;;;;;;35.20;7.13;;;5.00;91.80;;;;;;5032441;28;20418;-46
2023/01/30 06:34:03;;;;;;;36.88;7.50;;;5.10;91.80;;;;;;5030640;28;20052;-48
2023/01/30 06:36:39;;;;;;;32.28;7.13;;;5.10;91.70;;;;;;5032352;28;20144;-47
2023/01/30 06:39:05;;;;;;;35.25;9.50;;;5.00;91.70;;;;;;5031172;28;20021;-46
2023/01/30 06:41:32;;;;;;;33.90;6.45;;;5.00;91.80;;;;;;5032570;28;20032;-48
2023/01/30 06:43:59;;;;;;;34.58;6.18;;;5.00;91.80;;;;;;5032337;28;20041;-47
2023/01/30 06:46:29;;;;;;;36.85;6.40;;;5.10;91.80;;;;;;5031103;28;20041;-46
2023/01/30 06:48:56;;;;;;;30.08;5.78;;;5.10;91.80;;;;;;5032510;28;20040;-48
2023/01/30 06:51:23;;;;;;;29.10;4.93;;;5.20;91.70;;;;;;5033913;28;20711;-46
2023/01/30 06:53:50;;;;;;;38.03;6.40;;;5.20;91.50;;;;;;5031882;28;20025;-48
2023/01/30 06:56:17;;;;;;;34.35;6.75;;;5.30;91.40;;;;;;5032355;28;20017;-47
2023/01/30 06:58:45;;;;;;;27.60;5.70;;;5.30;91.10;;;;;;5036906;28;20560;-47
2023/01/30 07:01:11;;;;;;;28.27;5.90;;;5.30;91.10;;;;;;5030251;28;20029;-47
2023/01/30 07:03:38;;;;;;;27.40;5.78;;;5.30;90.80;;;;;;5032556;28;20033;-47
2023/01/30 07:06:05;;;;;;;36.20;7.38;;;5.30;90.60;;;;;;5034103;28;20033;-46
2023/01/30 07:08:33;;;;;;;25.90;6.97;;;5.30;90.40;;;;;;5033310;28;20040;-46
2023/01/30 07:10:59;;;;;;;26.45;5.03;;;5.30;90.40;;;;;;5024476;28;20070;-49
2023/01/30 07:13:26;;;;;;;22.17;6.00;;;5.40;90.30;;;;;;5026880;28;20351;-46
2023/01/30 07:15:55;;;;;;;32.83;5.95;;;5.40;90.10;;;;;;5014363;28;20030;-48
2023/01/30 07:18:24;;;;;;;30.90;5.93;;;5.40;90.20;;;;;;5028232;28;20022;-46
2023/01/30 07:20:51;;;;;;;27.83;5.40;;;5.40;90.10;;;;;;5029728;28;20382;-46
2023/01/30 07:23:18;;;;;;;21.48;5.80;;;5.40;90.30;;;;;;5029125;28;20061;-45
2023/01/30 07:25:46;;;;;;;28.27;6.35;;;5.40;90.10;;;;;;5028767;28;20037;-45
2023/01/30 07:28:13;;;;;;;29.90;7.00;;;5.40;90.00;;;;;;5029920;28;20044;-46
2023/01/30 07:30:40;;;;;;;37.47;7.00;;;5.50;89.90;;;;;;5030711;28;20041;-45
2023/01/30 07:33:06;;;;;;;29.88;7.00;;;5.50;89.80;;;;;;5025435;28;20132;-47
2023/01/30 07:35:35;;;;;;;37.72;6.80;;;5.50;89.40;;;;;;5031415;28;20093;-44
2023/01/30 07:38:05;;;;;;;;;;;5.50;89.30;;;;;;5029851;28;20116;-47
2023/01/30 07:40:32;;;;;;;;;;;5.60;89.30;;;;;;5012380;28;19959;-45
2023/01/30 07:43:09;;;;;;;29.75;5.43;;;5.60;89.30;;;;;;5030514;28;19913;-45
2023/01/30 07:45:54;;;;;;;32.28;5.93;;;5.60;89.50;;;;;;5025909;28;20155;-45
2023/01/30 07:48:21;;;;;;;38.83;8.52;;;5.50;89.70;;;;;;5031280;28;20702;-46
2023/01/30 07:50:47;;;;;;;32.03;6.45;;;5.50;89.50;;;;;;5025403;28;20033;-47
2023/01/30 07:53:17;;;;;;;29.48;6.75;;;5.50;89.40;;;;;;5028953;28;20625;-45
2023/01/30 07:55:50;;;;;;;32.92;9.13;;;5.50;89.50;;;;;;5032677;28;20060;-44
2023/01/30 07:58:17;;;;;;;28.83;6.05;;;5.50;89.50;;;;;;5022577;28;20034;-44
2023/01/30 08:00:45;;;;;;;38.05;5.68;;;5.60;89.40;;;;;;5027839;28;20047;-46
2023/01/30 08:03:14;;;;;;;35.20;5.78;;;5.60;89.20;;;;;;5018379;28;20057;-45
2023/01/30 08:05:40;;;;;;;40.75;6.70;;;5.60;89.00;;;;;;5012078;28;20049;-46
2023/01/30 08:08:07;;;;;;;23.30;5.78;;;5.60;89.20;;;;;;5025392;28;20048;-44
2023/01/30 08:10:37;;;;;;;33.83;7.50;;;5.60;89.20;;;;;;5030039;28;20059;-45
2023/01/30 08:13:08;;;;;;;32.83;6.82;;;5.70;88.90;;;;;;5024804;28;20029;-45
2023/01/30 08:15:35;;;;;;;34.63;7.57;;;5.70;88.90;;;;;;5027833;28;20033;-45
2023/01/30 08:18:01;;;;;;;28.05;7.07;;;5.70;88.80;;;;;;5037453;28;20474;-45
2023/01/30 08:20:29;;;;;;;35.55;7.70;;;5.70;88.80;;;;;;5040602;28;20059;-47
2023/01/30 08:22:57;;;;;;;35.25;7.75;;;5.80;88.60;;;;;;5027443;28;20065;-45
2023/01/30 08:25:24;;;;;;;35.95;8.77;;;5.80;88.70;;;;;;5029627;28;20034;-46
2023/01/30 08:27:53;;;;;;;32.08;6.60;;;5.80;88.50;;;;;;5031129;28;20033;-45
2023/01/30 08:30:23;;;;;;;29.83;6.65;;;5.80;88.40;;;;;;5029895;28;20049;-44
2023/01/30 08:32:52;;;;;;;21.90;5.13;;;5.70;88.00;;;;;;5026328;28;20124;-45
2023/01/30 08:35:17;;;;;;;28.38;5.95;;;5.70;88.10;;;;;;5030670;28;20021;-45
2023/01/30 08:37:45;;;;;;;32.58;6.85;;;5.70;87.60;;;;;;5025067;28;20053;-44
2023/01/30 08:40:14;;;;;;;30.42;6.45;;;5.70;87.70;;;;;;5029759;28;20040;-47
2023/01/30 08:42:43;;;;;;;30.23;6.05;;;5.80;87.40;;;;;;5030868;28;20075;-45
2023/01/30 08:45:09;;;;;;;32.25;7.20;;;5.90;87.10;;;;;;5022035;28;20042;-45
2023/01/30 08:47:35;;;;;;;31.83;5.53;;;6.00;87.20;;;;;;5029079;28;20045;-45
2023/01/30 08:50:04;;;;;;;32.47;4.65;;;6.00;86.70;;;;;;5031449;28;20064;-46
2023/01/30 08:52:32;;;;;;;27.55;4.90;;;6.10;86.30;;;;;;5033021;28;20028;-44
2023/01/30 08:54:59;;;;;;;28.58;7.50;;;6.10;86.40;;;;;;5030463;28;20041;-46
2023/01/30 08:57:26;;;;;;;29.27;7.15;;;6.10;86.20;;;;;;5011022;28;20439;-46
2023/01/30 08:59:53;;;;;;;31.10;6.35;;;6.20;86.00;;;;;;5030127;28;20060;-46
2023/01/30 09:02:20;;;;;;;22.75;5.68;;;6.20;85.80;;;;;;5023079;28;20025;-48
2023/01/30 09:04:46;;;;;;;18.90;4.35;;;6.30;85.50;;;;;;5021573;28;20040;-46
2023/01/30 09:07:13;;;;;;;33.97;7.35;;;6.40;85.10;;;;;;5026301;28;20029;-45
2023/01/30 09:09:41;;;;;;;25.83;5.40;;;6.50;84.70;;;;;;5022069;28;20061;-45
2023/01/30 09:12:08;;;;;;;20.67;4.75;;;6.50;84.20;;;;;;5021220;28;20041;-44
2023/01/30 09:14:34;;;;;;;30.55;6.20;;;6.50;84.20;;;;;;5029018;28;20105;-46
2023/01/30 09:17:03;;;;;;;19.80;5.97;;;6.50;84.70;;;;;;5019617;28;20046;-49
2023/01/30 09:19:29;;;;;;;17.20;4.47;;;6.40;84.70;;;;;;5037322;28;20082;-45
2023/01/30 09:21:59;;;;;;;25.10;6.13;;;6.40;85.30;;;;;;5023274;28;20025;-45
2023/01/30 09:24:25;;;;;;;27.55;6.35;;;6.30;85.40;;;;;;5029002;28;20038;-46
2023/01/30 09:27:00;;;;;;;20.48;5.97;;;6.30;85.50;;;;;;5031493;28;20080;-46
2023/01/30 09:29:26;;;;;;;21.75;5.22;;;6.30;86.60;;;;;;5021220;28;20124;-44
2023/01/30 09:31:55;;;;;;;30.63;6.85;;;6.10;87.10;;;;;;5029034;28;20057;-44
2023/01/30 09:34:31;;;;;;;22.38;5.72;;;6.00;87.60;;;;;;5029454;28;20032;-44
2023/01/30 09:36:59;;;;;;;26.77;6.65;;;6.10;87.80;;;;;;5033608;28;20040;-44
2023/01/30 09:39:26;;;;;;;16.15;4.03;;;6.20;87.60;;;;;;5035901;28;20059;-45
2023/01/30 09:42:13;;;;;;;23.83;4.95;;;6.30;87.90;;;;;;5034455;28;20036;-46
2023/01/30 09:45:16;;;;;;;23.40;5.82;;;6.40;87.20;;;;;;5035013;28;20116;-45
2023/01/30 09:48:11;;;;;;;28.15;5.75;;;6.60;86.60;;;;;;5031192;28;20065;-46
2023/01/30 09:51:13;;;;;;;29.63;6.90;;;6.60;86.50;;;;;;5034887;28;20403;-46
2023/01/30 09:53:41;;;;;;;33.33;6.13;;;6.60;86.60;;;;;;5040001;28;20021;-44
2023/01/30 09:56:08;;;;;;;31.52;6.05;;;6.60;86.50;;;;;;5039136;28;20037;-44
2023/01/30 09:58:57;;;;;;;35.47;8.52;;;6.60;86.70;;;;;;5022130;28;20037;-45
2023/01/30 10:01:55;;;;;;;28.43;6.23;;;6.70;86.40;;;;;;5035308;28;20167;-46
2023/01/30 10:04:43;;;;;;;28.23;6.57;;;6.90;86.50;;;;;;5025290;28;20390;-46
2023/01/30 10:07:38;;;;;;;27.85;6.97;;;6.90;86.10;;;;;;5023616;28;20037;-59
2023/01/30 10:10:38;;;;;;;16.02;3.75;;;6.70;86.60;;;;;;5033241;28;20537;-59
2023/01/30 10:13:35;;;;;;;18.45;4.10;;;5.60;87.70;;;;;;5032489;28;20133;-60
2023/01/30 10:16:24;;;;;;;18.15;3.25;;;5.00;90.00;;;;;;5030516;28;20037;-56
2023/01/30 10:18:52;;;;;;;19.87;3.20;;;4.90;91.00;;;;;;5034586;28;20035;-50
2023/01/30 10:21:51;;;;;;;15.23;2.75;;;4.90;91.40;;;;;;5034368;28;20026;-48
2023/01/30 10:24:59;;;;;;;16.52;2.42;;;4.90;91.50;;;;;;5019555;28;20037;-48
2023/01/30 10:27:29;;;;;;;12.43;2.13;;;5.00;91.30;;;;;;5021579;28;20041;-48
2023/01/30 10:30:06;;;;;;;14.00;1.70;;;4.90;91.10;;;;;;5032013;28;20116;-47
2023/01/30 10:33:04;;;;;;;13.32;2.53;;;4.90;90.60;;;;;;5013829;28;20056;-47
2023/01/30 10:36:22;;;;;;;13.18;4.20;;;5.00;90.20;;;;;;5031016;28;20359;-48
2023/01/30 10:38:53;;;;;;;21.50;3.90;;;5.30;89.80;;;;;;5050239;28;20048;-48
2023/01/30 10:41:44;;;;;;;20.45;4.30;;;5.60;89.70;;;;;;5022580;28;20026;-45
2023/01/30 10:44:12;;;;;;;27.73;5.15;;;5.80;89.50;;;;;;5033978;28;20029;-49
2023/01/30 10:47:02;;;;;;;25.40;6.20;;;5.90;89.50;;;;;;5034828;28;20056;-45
2023/01/30 10:50:04;;;;;;;12.55;4.47;;;6.00;89.00;;;;;;5026911;28;20022;-48
2023/01/30 10:52:58;;;;;;;9.48;2.00;;;5.90;86.30;;;;;;5031160;28;20042;-49
2023/01/30 10:55:36;;;;;;;11.50;2.35;;;5.60;85.60;;;;;;5035222;28;20041;-46
2023/01/30 10:58:32;;;;;;;15.63;2.50;;;5.40;85.20;;;;;;5029442;28;20026;-45
2023/01/30 11:01:31;;;;;;;12.30;2.17;;;5.20;86.10;;;;;;5028617;28;20045;-47
2023/01/30 11:04:14;;;;;;;12.80;2.70;;;5.30;86.80;;;;;;5026206;28;20037;-44
2023/01/30 11:06:42;;;;;;;17.20;3.65;;;5.50;87.00;;;;;;5033223;28;20037;-45
2023/01/30 11:09:10;;;;;;;19.35;5.20;;;5.80;87.20;;;;;;5034019;28;20160;-45
2023/01/30 11:11:47;;;;;;;29.88;5.60;;;6.00;86.80;;;;;;5032078;28;20470;-45
2023/01/30 11:14:17;;;;;;;24.92;5.78;;;6.20;86.90;;;;;;5027660;28;20060;-45
2023/01/30 11:16:47;;;;;;;30.38;6.63;;;6.30;86.80;;;;;;5026539;28;20546;-48
2023/01/30 11:19:15;;;;;;;33.42;7.30;;;6.30;86.70;;;;;;5031770;28;20025;-46
2023/01/30 11:21:47;;;;;;;29.83;7.30;;;6.40;86.30;;;;;;5016345;28;20810;-46
2023/01/30 11:24:22;;;;;;;28.25;5.35;;;6.50;85.70;;;;;;5030469;28;20036;-47
2023/01/30 11:26:48;;;;;;;29.50;6.22;;;6.60;85.60;;;;;;5014335;28;20038;-45
2023/01/30 11:29:15;;;;;;;23.85;6.03;;;6.70;84.80;;;;;;5031842;28;20417;-45
2023/01/30 11:31:50;;;;;;;26.38;7.25;;;6.80;84.70;;;;;;5028730;28;20044;-46
2023/01/30 11:34:18;;;;;;;30.20;6.88;;;6.90;84.90;;;;;;5031592;28;20176;-46
2023/01/30 11:36:46;;;;;;;28.42;6.32;;;7.00;84.60;;;;;;5031878;28;20064;-46
2023/01/30 11:39:19;;;;;;;44.00;7.95;;;7.00;83.90;;;;;;5029158;28;20458;-46
2023/01/30 11:41:57;;;;;;;32.00;8.35;;;7.00;83.70;;;;;;5030133;28;20120;-48
2023/01/30 11:44:42;;;;;;;24.17;5.25;;;7.20;83.60;;;;;;5031672;28;20037;-47
2023/01/30 11:47:19;;;;;;;18.08;4.25;;;7.20;83.30;;;;;;5031121;28;20129;-47
2023/01/30 11:49:54;;;;;;;18.10;2.75;;;7.20;82.40;;;;;;5019413;28;20060;-47
2023/01/30 11:52:27;;;;;;;15.00;3.70;;;6.90;83.00;;;;;;5044098;28;20029;-48
2023/01/30 11:55:04;;;;;;;17.95;4.07;;;6.80;83.50;;;;;;5033062;28;20454;-48
2023/01/30 11:57:42;;;;;;;24.27;3.85;;;6.80;83.60;;;;;;5007199;28;20392;-48
2023/01/30 12:00:42;;;;;;;18.65;5.60;;;6.90;84.20;;;;;;5016688;28;20029;-45
2023/01/30 12:03:17;;;;;;;18.70;3.92;;;6.90;83.70;;;;;;5017956;28;20054;-47
2023/01/30 12:05:45;;;;;;;26.70;4.95;;;6.90;83.60;;;;;;5029543;28;20037;-50
2023/01/30 12:08:20;;;;;;;19.02;5.32;;;7.00;83.10;;;;;;5015278;28;20037;-46
2023/01/30 12:11:00;;;;;;;26.27;7.18;;;7.00;83.40;;;;;;5031230;28;20422;-48
2023/01/30 12:13:46;;;;;;;20.50;4.88;;;7.00;82.80;;;;;;5003547;28;20065;-46
2023/01/30 12:16:22;;;;;;;26.23;6.70;;;7.00;82.00;;;;;;5029883;28;20664;-47
2023/01/30 12:19:18;;;;;;;18.58;4.47;;;7.10;82.20;;;;;;5032697;28;20130;-47
2023/01/30 12:22:03;;;;;;;22.05;4.07;;;7.10;82.50;;;;;;5026147;28;20030;-47
2023/01/30 12:24:58;;;;;;;30.23;7.78;;;7.10;82.50;;;;;;5021646;28;20032;-49
2023/01/30 12:27:47;;;;;;;25.75;7.68;;;7.10;83.10;;;;;;5032208;28;20026;-48
2023/01/30 12:30:31;;;;;;;25.70;4.90;;;7.10;82.80;;;;;;5021448;28;20407;-49
2023/01/30 12:33:04;;;;;;;24.25;5.80;;;7.20;83.20;;;;;;5027175;28;20144;-46
2023/01/30 12:35:58;;;;;;;31.40;5.32;;;7.20;82.60;;;;;;5031140;28;20021;-47
2023/01/30 12:38:40;;;;;;;25.15;5.75;;;7.30;82.90;;;;;;5015848;28;20033;-45
2023/01/30 12:41:30;;;;;;;43.63;7.63;;;7.40;82.90;;;;;;5031127;28;20344;-47
2023/01/30 12:44:31;;;;;;;26.55;6.75;;;7.40;82.70;;;;;;5024165;28;20021;-48
2023/01/30 12:47:39;;;;;;;29.35;6.20;;;7.30;81.80;;;;;;5028231;28;20025;-49
2023/01/30 12:50:28;;;;;;;29.67;7.90;;;7.30;82.40;;;;;;5031949;28;20457;-46
2023/01/30 12:53:23;;;;;;;30.90;6.15;;;7.30;82.30;;;;;;5031740;28;20086;-46
2023/01/30 12:56:08;;;;;;;25.48;5.20;;;7.30;82.60;;;;;;5022398;28;20545;-46
2023/01/30 12:59:07;;;;;;;29.23;6.43;;;7.30;82.60;;;;;;5029181;28;20569;-47
2023/01/30 13:01:54;;;;;;;32.05;6.45;;;7.40;82.30;;;;;;5031493;28;20028;-51
2023/01/30 13:04:20;;;;;;;29.75;6.22;;;7.40;82.00;;;;;;5028638;28;20083;-48
2023/01/30 13:07:04;;;;;;;22.98;6.00;;;7.40;81.90;;;;;;5031523;28;20103;-46
2023/01/30 13:09:48;;;;;;;30.55;8.02;;;7.40;81.90;;;;;;5030058;28;20073;-47
2023/01/30 13:12:33;;;;;;;32.83;7.78;;;7.30;82.30;;;;;;5028136;28;20418;-47
2023/01/30 13:15:29;;;;;;;34.47;6.95;;;7.30;82.60;;;;;;5028323;28;20056;-51
2023/01/30 13:18:07;;;;;;;36.35;9.63;;;7.30;83.10;;;;;;5027728;28;20434;-46
2023/01/30 13:21:11;;;;;;;26.95;8.82;;;7.40;83.10;;;;;;5022999;28;20044;-46
2023/01/30 13:24:24;;;;;;;31.67;7.68;;;7.40;83.20;;;;;;5021253;28;20049;-46
2023/01/30 13:26:56;;;;;;;30.95;6.88;;;7.40;83.30;;;;;;5029260;28;20049;-48
2023/01/30 13:29:43;;;;;;;36.65;6.38;;;7.30;83.20;;;;;;5027145;28;20033;-50